sensor_id;sensor_type;location;lat;lon;timestamp;pressure;altitude;pressure_sealevel;temperature
28905;BMP280;60848;53.884;11.446;2023-07-24T00:01:07;100126.63;;;19.25
28905;BMP280;60848;53.884;11.446;2023-07-24T00:03:39;100119.44;;;19.25
28905;BMP280;60848;53.884;11.446;2023-07-24T00:06:07;100119.44;;;19.25
28905;BMP280;60848;53.884;11.446;2023-07-24T00:08:36;100120.19;;;19.26
28905;BMP280;60848;53.884;11.446;2023-07-24T00:11:07;100123.25;;;19.24
28905;BMP280;60848;53.884;11.446;2023-07-24T00:13:35;100111.94;;;19.24
28905;BMP280;60848;53.884;11.446;2023-07-24T00:16:07;100112.66;;;19.24
28905;BMP280;60848;53.884;11.446;2023-07-24T00:18:35;100113.09;;;19.23
28905;BMP280;60848;53.884;11.446;2023-07-24T00:21:05;100112.03;;;19.20
28905;BMP280;60848;53.884;11.446;2023-07-24T00:23:33;100108.22;;;19.21
28905;BMP280;60848;53.884;11.446;2023-07-24T00:26:02;100097.34;;;19.19
28905;BMP280;60848;53.884;11.446;2023-07-24T00:28:30;100105.72;;;19.18
28905;BMP280;60848;53.884;11.446;2023-07-24T00:31:01;100102.63;;;19.19
28905;BMP280;60848;53.884;11.446;2023-07-24T00:33:29;100106.44;;;19.18
28905;BMP280;60848;53.884;11.446;2023-07-24T00:35:58;100104.97;;;19.17
28905;BMP280;60848;53.884;11.446;2023-07-24T00:38:28;100099.66;;;19.17
28905;BMP280;60848;53.884;11.446;2023-07-24T00:40:56;100096.13;;;19.20
28905;BMP280;60848;53.884;11.446;2023-07-24T00:45:57;100087.16;;;19.18
28905;BMP280;60848;53.884;11.446;2023-07-24T00:48:25;100082.59;;;19.18
28905;BMP280;60848;53.884;11.446;2023-07-24T00:50:54;100079.22;;;19.18
28905;BMP280;60848;53.884;11.446;2023-07-24T00:53:24;100083.47;;;19.15
28905;BMP280;60848;53.884;11.446;2023-07-24T00:55:54;100080.94;;;19.12
28905;BMP280;60848;53.884;11.446;2023-07-24T00:58:22;100077.25;;;19.09
28905;BMP280;60848;53.884;11.446;2023-07-24T01:00:51;100063.84;;;19.04
28905;BMP280;60848;53.884;11.446;2023-07-24T01:03:20;100067.50;;;18.97
28905;BMP280;60848;53.884;11.446;2023-07-24T01:05:50;100068.31;;;18.94
28905;BMP280;60848;53.884;11.446;2023-07-24T01:08:18;100073.03;;;18.90
28905;BMP280;60848;53.884;11.446;2023-07-24T01:10:47;100075.81;;;18.87
28905;BMP280;60848;53.884;11.446;2023-07-24T01:13:20;100072.13;;;18.84
28905;BMP280;60848;53.884;11.446;2023-07-24T01:15:56;100065.78;;;18.82
28905;BMP280;60848;53.884;11.446;2023-07-24T01:18:26;100065.91;;;18.78
28905;BMP280;60848;53.884;11.446;2023-07-24T01:20:57;100066.78;;;18.75
28905;BMP280;60848;53.884;11.446;2023-07-24T01:23:37;100070.28;;;18.72
28905;BMP280;60848;53.884;11.446;2023-07-24T01:26:10;100064.38;;;18.68
28905;BMP280;60848;53.884;11.446;2023-07-24T01:28:39;100071.16;;;18.69
28905;BMP280;60848;53.884;11.446;2023-07-24T01:31:09;100066.63;;;18.70
28905;BMP280;60848;53.884;11.446;2023-07-24T01:33:39;100061.00;;;18.67
28905;BMP280;60848;53.884;11.446;2023-07-24T01:36:07;100056.44;;;18.68
28905;BMP280;60848;53.884;11.446;2023-07-24T01:38:36;100054.09;;;18.70
28905;BMP280;60848;53.884;11.446;2023-07-24T01:41:05;100056.75;;;18.70
28905;BMP280;60848;53.884;11.446;2023-07-24T01:43:38;100056.44;;;18.68
28905;BMP280;60848;53.884;11.446;2023-07-24T01:46:08;100051.13;;;18.68
28905;BMP280;60848;53.884;11.446;2023-07-24T01:48:39;100056.03;;;18.70
28905;BMP280;60848;53.884;11.446;2023-07-24T01:51:07;100058.34;;;18.67
28905;BMP280;60848;53.884;11.446;2023-07-24T01:53:39;100064.09;;;18.66
28905;BMP280;60848;53.884;11.446;2023-07-24T01:56:08;100056.13;;;18.66
28905;BMP280;60848;53.884;11.446;2023-07-24T01:58:37;100059.06;;;18.68
28905;BMP280;60848;53.884;11.446;2023-07-24T02:01:06;100049.22;;;18.68
28905;BMP280;60848;53.884;11.446;2023-07-24T02:03:35;100050.13;;;18.66
28905;BMP280;60848;53.884;11.446;2023-07-24T02:06:03;100054.66;;;18.65
28905;BMP280;60848;53.884;11.446;2023-07-24T02:08:34;100052.03;;;18.65
28905;BMP280;60848;53.884;11.446;2023-07-24T02:11:02;100041.44;;;18.65
28905;BMP280;60848;53.884;11.446;2023-07-24T02:13:32;100044.50;;;18.63
28905;BMP280;60848;53.884;11.446;2023-07-24T02:16:02;100049.06;;;18.63
28905;BMP280;60848;53.884;11.446;2023-07-24T02:18:30;100043.75;;;18.63
28905;BMP280;60848;53.884;11.446;2023-07-24T02:21:01;100050.19;;;18.62
28905;BMP280;60848;53.884;11.446;2023-07-24T02:23:30;100051.81;;;18.59
28905;BMP280;60848;53.884;11.446;2023-07-24T02:25:58;100046.50;;;18.59
28905;BMP280;60848;53.884;11.446;2023-07-24T02:28:27;100047.69;;;18.58
28905;BMP280;60848;53.884;11.446;2023-07-24T02:30:57;100046.50;;;18.59
28905;BMP280;60848;53.884;11.446;2023-07-24T02:33:31;100047.25;;;18.60
28905;BMP280;60848;53.884;11.446;2023-07-24T02:36:00;100050.66;;;18.60
28905;BMP280;60848;53.884;11.446;2023-07-24T02:38:31;100043.16;;;18.59
28905;BMP280;60848;53.884;11.446;2023-07-24T02:40:59;100044.31;;;18.58
28905;BMP280;60848;53.884;11.446;2023-07-24T02:43:28;100038.25;;;18.57
28905;BMP280;60848;53.884;11.446;2023-07-24T02:46:00;100043.56;;;18.57
28905;BMP280;60848;53.884;11.446;2023-07-24T02:48:32;100041.78;;;18.54
28905;BMP280;60848;53.884;11.446;2023-07-24T02:51:00;100044.44;;;18.54
28905;BMP280;60848;53.884;11.446;2023-07-24T02:53:31;100040.75;;;18.52
28905;BMP280;60848;53.884;11.446;2023-07-24T02:56:02;100043.97;;;18.47
28905;BMP280;60848;53.884;11.446;2023-07-24T02:58:30;100037.16;;;18.46
28905;BMP280;60848;53.884;11.446;2023-07-24T03:03:37;100034.78;;;18.39
28905;BMP280;60848;53.884;11.446;2023-07-24T03:06:08;100046.84;;;18.40
28905;BMP280;60848;53.884;11.446;2023-07-24T03:08:39;100040.94;;;18.36
28905;BMP280;60848;53.884;11.446;2023-07-24T03:11:10;100045.94;;;18.34
28905;BMP280;60848;53.884;11.446;2023-07-24T03:13:39;100041.06;;;18.32
28905;BMP280;60848;53.884;11.446;2023-07-24T03:16:09;100051.66;;;18.32
28905;BMP280;60848;53.884;11.446;2023-07-24T03:18:42;100046.50;;;18.29
28905;BMP280;60848;53.884;11.446;2023-07-24T03:21:10;100045.75;;;18.28
28905;BMP280;60848;53.884;11.446;2023-07-24T03:23:39;100046.16;;;18.27
28905;BMP280;60848;53.884;11.446;2023-07-24T03:26:09;100056.75;;;18.27
28905;BMP280;60848;53.884;11.446;2023-07-24T03:28:38;100052.19;;;18.27
28905;BMP280;60848;53.884;11.446;2023-07-24T03:31:06;100054.50;;;18.25
28905;BMP280;60848;53.884;11.446;2023-07-24T03:33:35;100051.16;;;18.25
28905;BMP280;60848;53.884;11.446;2023-07-24T03:36:05;100057.91;;;18.26
28905;BMP280;60848;53.884;11.446;2023-07-24T03:38:33;100053.81;;;18.25
28905;BMP280;60848;53.884;11.446;2023-07-24T03:41:02;100042.47;;;18.24
28905;BMP280;60848;53.884;11.446;2023-07-24T03:43:30;100040.59;;;18.25
28905;BMP280;60848;53.884;11.446;2023-07-24T03:45:59;100042.03;;;18.26
28905;BMP280;60848;53.884;11.446;2023-07-24T03:48:27;100038.22;;;18.27
28905;BMP280;60848;53.884;11.446;2023-07-24T03:50:58;100029.88;;;18.28
28905;BMP280;60848;53.884;11.446;2023-07-24T03:53:28;100036.31;;;18.27
28905;BMP280;60848;53.884;11.446;2023-07-24T03:55:59;100043.53;;;18.27
28905;BMP280;60848;53.884;11.446;2023-07-24T03:58:27;100038.94;;;18.27
28905;BMP280;60848;53.884;11.446;2023-07-24T04:00:56;100038.94;;;18.27
28905;BMP280;60848;53.884;11.446;2023-07-24T04:03:24;100039.16;;;18.33
28905;BMP280;60848;53.884;11.446;2023-07-24T04:05:53;100046.53;;;18.38
28905;BMP280;60848;53.884;11.446;2023-07-24T04:08:21;100037.00;;;18.40
28905;BMP280;60848;53.884;11.446;2023-07-24T04:10:51;100034.94;;;18.44
28905;BMP280;60848;53.884;11.446;2023-07-24T04:13:20;100034.28;;;18.53
28905;BMP280;60848;53.884;11.446;2023-07-24T04:15:50;100032.34;;;18.53
28905;BMP280;60848;53.884;11.446;2023-07-24T04:18:19;100035.19;;;18.59
28905;BMP280;60848;53.884;11.446;2023-07-24T04:20:47;100028.03;;;18.68
28905;BMP280;60848;53.884;11.446;2023-07-24T04:23:18;100023.66;;;18.75
28905;BMP280;60848;53.884;11.446;2023-07-24T04:25:47;100015.16;;;18.80
28905;BMP280;60848;53.884;11.446;2023-07-24T04:28:18;100009.91;;;18.89
28905;BMP280;60848;53.884;11.446;2023-07-24T04:30:47;100015.66;;;18.96
28905;BMP280;60848;53.884;11.446;2023-07-24T04:33:15;100002.44;;;19.05
28905;BMP280;60848;53.884;11.446;2023-07-24T04:35:47;100012.47;;;19.10
28905;BMP280;60848;53.884;11.446;2023-07-24T04:38:15;100010.59;;;19.20
28905;BMP280;60848;53.884;11.446;2023-07-24T04:40:44;100022.09;;;19.26
28905;BMP280;60848;53.884;11.446;2023-07-24T04:43:12;100020.63;;;19.34
28905;BMP280;60848;53.884;11.446;2023-07-24T04:45:42;100020.63;;;19.43
28905;BMP280;60848;53.884;11.446;2023-07-24T04:48:11;100020.50;;;19.55
28905;BMP280;60848;53.884;11.446;2023-07-24T04:50:41;100017.13;;;19.64
28905;BMP280;60848;53.884;11.446;2023-07-24T04:53:12;100027.75;;;19.73
28905;BMP280;60848;53.884;11.446;2023-07-24T04:55:40;100022.03;;;19.83
28905;BMP280;60848;53.884;11.446;2023-07-24T04:58:11;100022.63;;;19.96
28905;BMP280;60848;53.884;11.446;2023-07-24T05:00:39;100021.88;;;20.05
28905;BMP280;60848;53.884;11.446;2023-07-24T05:03:09;100018.00;;;20.06
28905;BMP280;60848;53.884;11.446;2023-07-24T05:05:38;100021.41;;;20.06
28905;BMP280;60848;53.884;11.446;2023-07-24T05:08:11;100013.91;;;20.14
28905;BMP280;60848;53.884;11.446;2023-07-24T05:10:42;100002.94;;;20.30
28905;BMP280;60848;53.884;11.446;2023-07-24T05:13:10;99983.44;;;20.42
28905;BMP280;60848;53.884;11.446;2023-07-24T05:15:39;99991.06;;;20.58
28905;BMP280;60848;53.884;11.446;2023-07-24T05:18:09;99987.59;;;20.75
28905;BMP280;60848;53.884;11.446;2023-07-24T05:20:43;99990.16;;;20.93
28905;BMP280;60848;53.884;11.446;2023-07-24T05:23:11;99994.81;;;21.07
28905;BMP280;60848;53.884;11.446;2023-07-24T05:25:39;100001.19;;;21.24
28905;BMP280;60848;53.884;11.446;2023-07-24T05:28:10;99992.09;;;21.40
28905;BMP280;60848;53.884;11.446;2023-07-24T05:30:38;99986.50;;;21.52
28905;BMP280;60848;53.884;11.446;2023-07-24T05:33:07;99993.34;;;21.68
28905;BMP280;60848;53.884;11.446;2023-07-24T05:35:36;99987.91;;;21.77
28905;BMP280;60848;53.884;11.446;2023-07-24T05:38:08;99990.59;;;21.91
28905;BMP280;60848;53.884;11.446;2023-07-24T05:40:37;99990.88;;;22.08
28905;BMP280;60848;53.884;11.446;2023-07-24T05:43:05;99993.63;;;22.13
28905;BMP280;60848;53.884;11.446;2023-07-24T05:45:33;99984.81;;;22.22
28905;BMP280;60848;53.884;11.446;2023-07-24T05:48:02;99991.03;;;22.33
28905;BMP280;60848;53.884;11.446;2023-07-24T05:50:30;99995.06;;;22.29
28905;BMP280;60848;53.884;11.446;2023-07-24T05:53:01;99986.72;;;22.36
28905;BMP280;60848;53.884;11.446;2023-07-24T05:55:29;99989.84;;;22.49
28905;BMP280;60848;53.884;11.446;2023-07-24T05:57:58;99993.47;;;22.51
28905;BMP280;60848;53.884;11.446;2023-07-24T06:00:26;99984.44;;;22.63
28905;BMP280;60848;53.884;11.446;2023-07-24T06:02:54;99981.53;;;22.81
28905;BMP280;60848;53.884;11.446;2023-07-24T06:05:23;99977.53;;;22.91
28905;BMP280;60848;53.884;11.446;2023-07-24T06:07:51;99969.94;;;23.04
28905;BMP280;60848;53.884;11.446;2023-07-24T06:10:21;99965.72;;;23.18
28905;BMP280;60848;53.884;11.446;2023-07-24T06:12:49;99971.03;;;23.38
28905;BMP280;60848;53.884;11.446;2023-07-24T06:15:18;99967.91;;;23.65
28905;BMP280;60848;53.884;11.446;2023-07-24T06:17:46;99959.34;;;23.87
28905;BMP280;60848;53.884;11.446;2023-07-24T06:20:19;99958.03;;;24.02
28905;BMP280;60848;53.884;11.446;2023-07-24T06:22:48;99967.53;;;24.09
28905;BMP280;60848;53.884;11.446;2023-07-24T06:25:16;99975.59;;;24.14
28905;BMP280;60848;53.884;11.446;2023-07-24T06:27:46;99962.34;;;24.31
28905;BMP280;60848;53.884;11.446;2023-07-24T06:30:14;99958.28;;;24.46
28905;BMP280;60848;53.884;11.446;2023-07-24T06:32:43;99960.78;;;24.55
28905;BMP280;60848;53.884;11.446;2023-07-24T06:35:11;99956.47;;;24.69
28905;BMP280;60848;53.884;11.446;2023-07-24T06:37:42;99950.91;;;24.83
28905;BMP280;60848;53.884;11.446;2023-07-24T06:40:13;99944.38;;;24.90
28905;BMP280;60848;53.884;11.446;2023-07-24T06:42:41;99956.06;;;24.92
28905;BMP280;60848;53.884;11.446;2023-07-24T06:45:11;99948.53;;;24.96
28905;BMP280;60848;53.884;11.446;2023-07-24T06:47:40;99951.94;;;24.97
28905;BMP280;60848;53.884;11.446;2023-07-24T06:50:08;99949.72;;;24.84
28905;BMP280;60848;53.884;11.446;2023-07-24T06:52:37;99954.28;;;24.73
28905;BMP280;60848;53.884;11.446;2023-07-24T06:55:08;99958.09;;;24.55
28905;BMP280;60848;53.884;11.446;2023-07-24T06:57:36;99948.34;;;24.52
28905;BMP280;60848;53.884;11.446;2023-07-24T07:00:06;99942.81;;;24.61
28905;BMP280;60848;53.884;11.446;2023-07-24T07:02:42;99943.09;;;24.69
28905;BMP280;60848;53.884;11.446;2023-07-24T07:05:10;99954.81;;;24.82
28905;BMP280;60848;53.884;11.446;2023-07-24T07:07:39;99951.91;;;24.86
28905;BMP280;60848;53.884;11.446;2023-07-24T07:10:08;99939.50;;;24.83
28905;BMP280;60848;53.884;11.446;2023-07-24T07:12:36;99940.19;;;24.83
28905;BMP280;60848;53.884;11.446;2023-07-24T07:15:06;99935.59;;;24.78
28905;BMP280;60848;53.884;11.446;2023-07-24T07:17:34;99936.03;;;24.71
28905;BMP280;60848;53.884;11.446;2023-07-24T07:20:06;99937.69;;;24.63
28905;BMP280;60848;53.884;11.446;2023-07-24T07:22:34;99938.44;;;24.64
28905;BMP280;60848;53.884;11.446;2023-07-24T07:25:03;99927.56;;;24.78
28905;BMP280;60848;53.884;11.446;2023-07-24T07:27:32;99934.44;;;25.07
28905;BMP280;60848;53.884;11.446;2023-07-24T07:30:00;99926.19;;;25.10
28905;BMP280;60848;53.884;11.446;2023-07-24T07:32:29;99922.81;;;25.15
28905;BMP280;60848;53.884;11.446;2023-07-24T07:35:01;99925.22;;;25.13
28905;BMP280;60848;53.884;11.446;2023-07-24T07:37:34;99937.88;;;25.07
28905;BMP280;60848;53.884;11.446;2023-07-24T07:40:03;99929.56;;;24.94
28905;BMP280;60848;53.884;11.446;2023-07-24T07:42:31;99933.41;;;24.93
28905;BMP280;60848;53.884;11.446;2023-07-24T07:45:00;99922.25;;;25.00
28905;BMP280;60848;53.884;11.446;2023-07-24T07:47:28;99932.03;;;25.20
28905;BMP280;60848;53.884;11.446;2023-07-24T07:49:57;99929.59;;;25.22
28905;BMP280;60848;53.884;11.446;2023-07-24T07:52:25;99919.63;;;25.28
28905;BMP280;60848;53.884;11.446;2023-07-24T07:54:55;99928.66;;;25.47
28905;BMP280;60848;53.884;11.446;2023-07-24T07:57:29;99926.44;;;25.56
28905;BMP280;60848;53.884;11.446;2023-07-24T08:00:00;99923.31;;;25.63
28905;BMP280;60848;53.884;11.446;2023-07-24T08:02:31;99918.66;;;25.64
28905;BMP280;60848;53.884;11.446;2023-07-24T08:04:59;99932.56;;;25.57
28905;BMP280;60848;53.884;11.446;2023-07-24T08:07:38;99934.75;;;25.47
28905;BMP280;60848;53.884;11.446;2023-07-24T08:10:09;99935.72;;;25.33
28905;BMP280;60848;53.884;11.446;2023-07-24T08:12:37;99933.25;;;25.24
28905;BMP280;60848;53.884;11.446;2023-07-24T08:15:09;99941.53;;;25.15
28905;BMP280;60848;53.884;11.446;2023-07-24T08:17:37;99936.69;;;25.25
28905;BMP280;60848;53.884;11.446;2023-07-24T08:20:09;99946.66;;;25.24
28905;BMP280;60848;53.884;11.446;2023-07-24T08:22:40;99937.38;;;25.20
28905;BMP280;60848;53.884;11.446;2023-07-24T08:25:10;99946.66;;;25.19
28905;BMP280;60848;53.884;11.446;2023-07-24T08:27:38;99941.75;;;25.12
28905;BMP280;60848;53.884;11.446;2023-07-24T08:30:27;99934.22;;;25.05
28905;BMP280;60848;53.884;11.446;2023-07-24T08:32:55;99934.66;;;24.92
28905;BMP280;60848;53.884;11.446;2023-07-24T08:35:27;99930.75;;;24.82
28905;BMP280;60848;53.884;11.446;2023-07-24T08:37:58;99940.88;;;24.67
28905;BMP280;60848;53.884;11.446;2023-07-24T08:40:28;99936.25;;;24.57
28905;BMP280;60848;53.884;11.446;2023-07-24T08:42:59;99930.56;;;24.44
28905;BMP280;60848;53.884;11.446;2023-07-24T08:45:27;99923.97;;;24.39
28905;BMP280;60848;53.884;11.446;2023-07-24T08:47:56;99917.19;;;24.38
28905;BMP280;60848;53.884;11.446;2023-07-24T08:50:25;99911.59;;;24.36
28905;BMP280;60848;53.884;11.446;2023-07-24T08:52:53;99912.53;;;24.33
28905;BMP280;60848;53.884;11.446;2023-07-24T08:55:22;99909.81;;;24.22
28905;BMP280;60848;53.884;11.446;2023-07-24T08:57:51;99914.19;;;24.20
28905;BMP280;60848;53.884;11.446;2023-07-24T09:00:21;99901.50;;;24.15
28905;BMP280;60848;53.884;11.446;2023-07-24T09:02:50;99910.47;;;24.06
28905;BMP280;60848;53.884;11.446;2023-07-24T09:05:18;99899.50;;;24.04
28905;BMP280;60848;53.884;11.446;2023-07-24T09:07:47;99904.09;;;23.98
28905;BMP280;60848;53.884;11.446;2023-07-24T09:10:16;99904.03;;;23.93
28905;BMP280;60848;53.884;11.446;2023-07-24T09:12:44;99898.66;;;23.87
28905;BMP280;60848;53.884;11.446;2023-07-24T09:15:14;99894.00;;;23.82
28905;BMP280;60848;53.884;11.446;2023-07-24T09:17:49;99908.31;;;23.79
28905;BMP280;60848;53.884;11.446;2023-07-24T09:20:18;99901.00;;;23.74
28905;BMP280;60848;53.884;11.446;2023-07-24T09:22:58;99908.72;;;23.72
28905;BMP280;60848;53.884;11.446;2023-07-24T09:25:43;99913.75;;;23.64
28905;BMP280;60848;53.884;11.446;2023-07-24T09:28:13;99913.97;;;23.61
28905;BMP280;60848;53.884;11.446;2023-07-24T09:30:51;99914.47;;;23.60
28905;BMP280;60848;53.884;11.446;2023-07-24T09:33:20;99913.28;;;23.61
28905;BMP280;60848;53.884;11.446;2023-07-24T09:35:59;99908.88;;;23.58
28905;BMP280;60848;53.884;11.446;2023-07-24T09:38:27;99913.75;;;23.59
28905;BMP280;60848;53.884;11.446;2023-07-24T09:40:56;99907.44;;;23.62
28905;BMP280;60848;53.884;11.446;2023-07-24T09:43:26;99915.72;;;23.64
28905;BMP280;60848;53.884;11.446;2023-07-24T09:46:02;99912.34;;;23.64
28905;BMP280;60848;53.884;11.446;2023-07-24T09:48:32;99916.34;;;23.53
28905;BMP280;60848;53.884;11.446;2023-07-24T09:51:06;99911.72;;;23.54
28905;BMP280;60848;53.884;11.446;2023-07-24T09:53:38;99917.28;;;23.50
28905;BMP280;60848;53.884;11.446;2023-07-24T09:56:08;99912.38;;;23.43
28905;BMP280;60848;53.884;11.446;2023-07-24T09:58:40;99912.78;;;23.36
28905;BMP280;60848;53.884;11.446;2023-07-24T10:01:10;99904.63;;;23.20
28905;BMP280;60848;53.884;11.446;2023-07-24T10:03:40;99901.13;;;23.08
28905;BMP280;60848;53.884;11.446;2023-07-24T10:06:10;99898.06;;;22.95
28905;BMP280;60848;53.884;11.446;2023-07-24T10:08:39;99906.00;;;22.90
28905;BMP280;60848;53.884;11.446;2023-07-24T10:11:07;99901.34;;;22.85
28905;BMP280;60848;53.884;11.446;2023-07-24T10:13:39;99890.63;;;22.79
28905;BMP280;60848;53.884;11.446;2023-07-24T10:16:11;99900.75;;;22.75
28905;BMP280;60848;53.884;11.446;2023-07-24T10:18:44;99897.38;;;22.75
28905;BMP280;60848;53.884;11.446;2023-07-24T10:21:13;99898.53;;;22.74
28905;BMP280;60848;53.884;11.446;2023-07-24T10:23:42;99908.47;;;22.73
28905;BMP280;60848;53.884;11.446;2023-07-24T10:26:11;99898.53;;;22.74
28905;BMP280;60848;53.884;11.446;2023-07-24T10:28:40;99905.13;;;22.73
28905;BMP280;60848;53.884;11.446;2023-07-24T10:31:21;99908.03;;;22.75
28905;BMP280;60848;53.884;11.446;2023-07-24T10:33:50;99906.47;;;22.88
28905;BMP280;60848;53.884;11.446;2023-07-24T10:36:20;99904.00;;;23.05
28905;BMP280;60848;53.884;11.446;2023-07-24T10:38:52;99903.91;;;23.19
28905;BMP280;60848;53.884;11.446;2023-07-24T10:41:33;99890.31;;;23.17
28905;BMP280;60848;53.884;11.446;2023-07-24T10:44:02;99885.69;;;23.18
28905;BMP280;60848;53.884;11.446;2023-07-24T10:46:38;99894.50;;;23.24
28905;BMP280;60848;53.884;11.446;2023-07-24T10:49:11;99903.84;;;23.39
28905;BMP280;60848;53.884;11.446;2023-07-24T10:51:39;99882.75;;;23.73
28905;BMP280;60848;53.884;11.446;2023-07-24T10:54:08;99888.78;;;23.99
28905;BMP280;60848;53.884;11.446;2023-07-24T10:56:36;99884.56;;;24.23
28905;BMP280;60848;53.884;11.446;2023-07-24T10:59:05;99884.63;;;24.34
28905;BMP280;60848;53.884;11.446;2023-07-24T11:01:33;99877.78;;;24.39
28905;BMP280;60848;53.884;11.446;2023-07-24T11:04:04;99880.72;;;24.35
28905;BMP280;60848;53.884;11.446;2023-07-24T11:06:32;99876.59;;;24.34
28905;BMP280;60848;53.884;11.446;2023-07-24T11:09:01;99872.91;;;24.26
28905;BMP280;60848;53.884;11.446;2023-07-24T11:11:34;99868.00;;;24.19
28905;BMP280;60848;53.884;11.446;2023-07-24T11:14:03;99864.41;;;24.28
28905;BMP280;60848;53.884;11.446;2023-07-24T11:16:32;99855.47;;;24.36
28905;BMP280;60848;53.884;11.446;2023-07-24T11:19:01;99857.41;;;24.41
28905;BMP280;60848;53.884;11.446;2023-07-24T11:21:31;99856.19;;;24.42
28905;BMP280;60848;53.884;11.446;2023-07-24T11:24:00;99854.53;;;24.45
28905;BMP280;60848;53.884;11.446;2023-07-24T11:26:37;99851.13;;;24.50
28905;BMP280;60848;53.884;11.446;2023-07-24T11:29:11;99844.63;;;24.62
28905;BMP280;60848;53.884;11.446;2023-07-24T11:31:40;99845.34;;;24.73
28905;BMP280;60848;53.884;11.446;2023-07-24T11:34:08;99841.72;;;24.87
28905;BMP280;60848;53.884;11.446;2023-07-24T11:36:38;99846.38;;;24.98
28905;BMP280;60848;53.884;11.446;2023-07-24T11:39:06;99841.28;;;24.94
28905;BMP280;60848;53.884;11.446;2023-07-24T11:41:35;99846.84;;;24.85
28905;BMP280;60848;53.884;11.446;2023-07-24T11:44:03;99834.94;;;24.81
28905;BMP280;60848;53.884;11.446;2023-07-24T11:46:34;99827.59;;;24.70
28905;BMP280;60848;53.884;11.446;2023-07-24T11:49:03;99833.19;;;24.67
28905;BMP280;60848;53.884;11.446;2023-07-24T11:51:32;99817.38;;;24.63
28905;BMP280;60848;53.884;11.446;2023-07-24T11:54:07;99824.94;;;24.65
28905;BMP280;60848;53.884;11.446;2023-07-24T11:56:35;99839.50;;;24.69
28905;BMP280;60848;53.884;11.446;2023-07-24T11:59:10;99832.47;;;24.66
28905;BMP280;60848;53.884;11.446;2023-07-24T12:01:39;99828.34;;;24.71
28905;BMP280;60848;53.884;11.446;2023-07-24T12:04:07;99836.13;;;24.74
28905;BMP280;60848;53.884;11.446;2023-07-24T12:06:38;99842.72;;;24.79
28905;BMP280;60848;53.884;11.446;2023-07-24T12:09:08;99857.53;;;24.80
28905;BMP280;60848;53.884;11.446;2023-07-24T12:11:42;99855.31;;;24.73
28905;BMP280;60848;53.884;11.446;2023-07-24T12:14:13;99841.72;;;24.71
28905;BMP280;60848;53.884;11.446;2023-07-24T12:16:42;99842.47;;;24.82
28905;BMP280;60848;53.884;11.446;2023-07-24T12:19:10;99838.34;;;24.92
28905;BMP280;60848;53.884;11.446;2023-07-24T12:21:39;99836.63;;;24.89
28905;BMP280;60848;53.884;11.446;2023-07-24T12:24:09;99826.91;;;24.92
28905;BMP280;60848;53.884;11.446;2023-07-24T12:26:37;99821.56;;;24.97
28905;BMP280;60848;53.884;11.446;2023-07-24T12:29:10;99821.81;;;24.99
28905;BMP280;60848;53.884;11.446;2023-07-24T12:31:38;99816.47;;;25.05
28905;BMP280;60848;53.884;11.446;2023-07-24T12:34:08;99824.00;;;25.06
28905;BMP280;60848;53.884;11.446;2023-07-24T12:36:38;99819.91;;;25.05
28905;BMP280;60848;53.884;11.446;2023-07-24T12:39:06;99809.66;;;24.98
28905;BMP280;60848;53.884;11.446;2023-07-24T12:41:36;99807.69;;;24.88
28905;BMP280;60848;53.884;11.446;2023-07-24T12:44:05;99821.56;;;24.81
28905;BMP280;60848;53.884;11.446;2023-07-24T12:46:33;99811.34;;;24.68
28905;BMP280;60848;53.884;11.446;2023-07-24T12:49:01;99813.25;;;24.68
28905;BMP280;60848;53.884;11.446;2023-07-24T12:51:30;99817.41;;;24.69
28905;BMP280;60848;53.884;11.446;2023-07-24T12:53:58;99815.69;;;24.71
28905;BMP280;60848;53.884;11.446;2023-07-24T12:56:41;99816.66;;;24.74
28905;BMP280;60848;53.884;11.446;2023-07-24T12:59:09;99807.66;;;24.71
28905;BMP280;60848;53.884;11.446;2023-07-24T13:01:38;99804.50;;;24.67
28905;BMP280;60848;53.884;11.446;2023-07-24T13:04:07;99807.41;;;24.64
28905;BMP280;60848;53.884;11.446;2023-07-24T13:06:36;99820.78;;;24.58
28905;BMP280;60848;53.884;11.446;2023-07-24T13:09:04;99817.84;;;24.56
28905;BMP280;60848;53.884;11.446;2023-07-24T13:11:33;99816.41;;;24.55
28905;BMP280;60848;53.884;11.446;2023-07-24T13:14:02;99808.13;;;24.48
28905;BMP280;60848;53.884;11.446;2023-07-24T13:16:31;99800.56;;;24.41
28905;BMP280;60848;53.884;11.446;2023-07-24T13:19:02;99791.06;;;24.40
28905;BMP280;60848;53.884;11.446;2023-07-24T13:21:33;99785.72;;;24.40
28905;BMP280;60848;53.884;11.446;2023-07-24T13:24:01;99790.59;;;24.41
28905;BMP280;60848;53.884;11.446;2023-07-24T13:26:30;99782.38;;;24.45
28905;BMP280;60848;53.884;11.446;2023-07-24T13:28:59;99791.81;;;24.40
28905;BMP280;60848;53.884;11.446;2023-07-24T13:31:28;99783.06;;;24.40
28905;BMP280;60848;53.884;11.446;2023-07-24T13:33:59;99779.19;;;24.41
28905;BMP280;60848;53.884;11.446;2023-07-24T13:36:27;99773.84;;;24.46
28905;BMP280;60848;53.884;11.446;2023-07-24T13:38:56;99765.34;;;24.53
28905;BMP280;60848;53.884;11.446;2023-07-24T13:41:25;99760.72;;;24.59
28905;BMP280;60848;53.884;11.446;2023-07-24T13:43:53;99763.44;;;24.70
28905;BMP280;60848;53.884;11.446;2023-07-24T13:46:22;99756.13;;;24.76
28905;BMP280;60848;53.884;11.446;2023-07-24T13:48:52;99748.59;;;24.80
28905;BMP280;60848;53.884;11.446;2023-07-24T13:51:22;99755.41;;;24.81
28905;BMP280;60848;53.884;11.446;2023-07-24T13:53:51;99753.22;;;24.74
28905;BMP280;60848;53.884;11.446;2023-07-24T13:56:20;99751.25;;;24.69
28905;BMP280;60848;53.884;11.446;2023-07-24T13:58:50;99751.50;;;24.66
28905;BMP280;60848;53.884;11.446;2023-07-24T14:01:19;99743.97;;;24.64
28905;BMP280;60848;53.884;11.446;2023-07-24T14:03:47;99740.56;;;24.64
28905;BMP280;60848;53.884;11.446;2023-07-24T14:06:17;99739.59;;;24.67
28905;BMP280;60848;53.884;11.446;2023-07-24T14:08:45;99736.69;;;24.70
28905;BMP280;60848;53.884;11.446;2023-07-24T14:11:14;99732.28;;;24.56